FNLUFOOL

Guest
Details From FNLU - Luanda 4 De Fevereiro
To FOOL - Leon M Ba
Flight Number -
Tags Generated
Created
Modified
Stats Distance 606 nm / 1,123 km
Max Altitude 0 ft / 0 m
Waypoints 3
Social Downloads 1
Likes 0
Share VATSIM

Download

Looking for another format? Having issues loading an existing format? Contact us
Advertisement - Login to hide

Notes

Generated

Route

FNLU LV FOOL

ID Type Via Altitude Latitude Longitude Leg Dist Tot Dist Heading (true) Name
O FNLU APT - 0 ft / 0 m -8.85561˚ 13.22570˚ - 0 nm - LUANDA 4 DE FEVEREIRO
LV VOR - 0 ft / 0 m 0.47983˚ 9.40197˚ 605 nm 605 nm 338° / 338° LIBREVILLE VOR-DME
O FOOL APT - 0 ft / 0 m 0.47081˚ 9.40635˚ 0 nm 606 nm 154° / 154° -

Altitude Profile

Advertisement - Login to hide

Weather


0- 5 10 15 20 25 30 35+ Temperature / ° C

Clouds and Precipitation
Forecast for 2018-05-24 06:00 UTC. Updated 4 hours ago

Ground ~20,000 ft ~40,000 ft Winds

FNLU

Details ICAO FNLU (LAD)
Name LUANDA 4 DE FEVEREIRO
Region Angola
Timezone Africa/Luanda (UTC+1.0)
Stats Elevation 243 ft / 74 m (AMSL)
Location -8.858377° 13.231178°
Runways 2
Magnetic Variation 3.408° W

METAR

FNLU 240800Z VRB03KT 9000 FEW017 BKN022 25/20 Q1014 NOSIG

Decode

TAF

TAF FNLU 240500Z 2406/2512 16006KT 8000 BKN020 BECMG 2410/2412 27012KT 9999 SCT020 BKN050 TEMPO 2413/2417 FEW020

Decode

Departure Runways

ID Width Length Bearing (true) Bearing (mag) Surface Threshold Offset Overrun Length
05 148 ft / 45 m 12,153 ft / 3,704 m 46.63° 50.04° Asphalt 0 ft / 0 m 0 ft / 0 m
07 197 ft / 60 m 8,176 ft / 2,492 m 67.40° 70.81° Asphalt 0 ft / 0 m 176 ft / 54 m
23 148 ft / 45 m 12,153 ft / 3,704 m 226.62° 230.03° Asphalt 500 ft / 152 m 0 ft / 0 m
25 197 ft / 60 m 8,176 ft / 2,492 m 247.40° 250.81° Asphalt 0 ft / 0 m 0 ft / 0 m

FOOL

Details ICAO FOOL (LBV)
Name Leon M Ba
Region Gabon
Timezone Africa/Libreville (UTC+1.0)
Stats Elevation 39 ft / 12 m (AMSL)
Location 0.458616° 9.412250°
Runways 1
Magnetic Variation 1.879° W

METAR

FOOL 240900Z 11006KT 8000 SCT010 FEW016CB OVC030 27/24 Q1014 BECMG 4000 TSRA

Decode

TAF

TAF FOOL 240500Z 2406/2512 22008KT 9999 SCT012 FEW020CB BKN030 PROB30 TEMPO 2413/2418 3500 TSRA BKN008 FEW018CB OVC026

Decode

Destination Runways

ID Width Length Bearing (true) Bearing (mag) Surface Threshold Offset Overrun Length
16 148 ft / 45 m 9,889 ft / 3,014 m 154.19° 156.07° Asphalt 0 ft / 0 m 192 ft / 59 m
34 148 ft / 45 m 9,889 ft / 3,014 m 334.19° 336.07° Asphalt 0 ft / 0 m 209 ft / 64 m

Approach Navaids

Runway Type Ident Frequency Range Bearing (true) Bearing (mag) Slope Elevation
16 Localiser LB 109.50 MHz 18 nm / 33 km 155.78° 157.66° - 39 ft / 12 m (AMSL)
16 Glidescope LB 109.50 MHz 10 nm / 19 km 154.19° 156.07° 3.00° 54 ft / 16 m (AMSL)
16 DME LB 109.50 MHz 18 nm / 33 km - - - 39 ft / 12 m (AMSL)

Popular Alternatives